Time;durP1;ratioP1;P1;durP2;ratioP2;P2;SDS_P1;SDS_P2;PMS_P1;PMS_P2;Temp;Humidity;BMP_temperature;BMP_pressure;BME280_temperature;BME280_humidity;BME280_pressure;Samples;Min_cycle;Max_cycle;Signal;HPM_P1;HPM_P2
2021/04/26 00:02:21;;;;;;;;;;;18.30;47.90;;;;;;5038817;28;20461;-68
2021/04/26 00:04:47;;;;;;;;;;;18.30;47.80;;;;;;5038235;28;19925;-68
2021/04/26 00:07:12;;;;;;;;;;;18.30;47.80;;;;;;5042813;28;19916;-68
2021/04/26 00:09:38;;;;;;;;;;;18.30;47.80;;;;;;5035997;28;19917;-69
2021/04/26 00:12:03;;;;;;;;;;;18.30;47.80;;;;;;5035282;28;20699;-69
2021/04/26 00:14:29;;;;;;;;;;;18.30;47.70;;;;;;5037981;28;19921;-68
2021/04/26 00:16:54;;;;;;;;;;;18.30;47.70;;;;;;5037953;28;19976;-68
2021/04/26 00:19:20;;;;;;;;;;;18.30;47.60;;;;;;5038256;28;19921;-68
2021/04/26 00:21:45;;;;;;;;;;;18.30;47.60;;;;;;5038269;28;19924;-68
2021/04/26 00:24:11;;;;;;;;;;;18.30;47.60;;;;;;5034506;28;19941;-68
2021/04/26 00:26:36;;;;;;;;;;;18.30;47.60;;;;;;5033177;28;19917;-68
2021/04/26 00:29:02;;;;;;;;;;;18.30;47.60;;;;;;5029236;28;19929;-68
2021/04/26 00:31:27;;;;;;;;;;;18.30;47.60;;;;;;5037011;28;20350;-68
2021/04/26 00:33:53;;;;;;;;;;;18.30;47.60;;;;;;5035607;28;19929;-67
2021/04/26 00:36:18;;;;;;;;;;;18.30;47.60;;;;;;5041020;28;20415;-67
2021/04/26 00:38:43;;;;;;;;;;;18.30;47.50;;;;;;5042090;28;19924;-68
2021/04/26 00:41:09;;;;;;;;;;;18.30;47.40;;;;;;5038474;28;20379;-67
2021/04/26 00:43:34;;;;;;;;;;;18.30;47.50;;;;;;5035142;28;19929;-66
2021/04/26 00:46:00;;;;;;;;;;;18.30;47.40;;;;;;5041600;28;19921;-68
2021/04/26 00:48:25;;;;;;;;;;;18.30;47.40;;;;;;5038534;28;19924;-68
2021/04/26 00:50:51;;;;;;;;;;;18.20;47.30;;;;;;5048880;28;20426;-68
2021/04/26 00:53:16;;;;;;;;;;;18.20;47.30;;;;;;5043338;28;19925;-67
2021/04/26 00:55:42;;;;;;;;;;;18.20;47.30;;;;;;5034407;28;19928;-69
2021/04/26 00:58:08;;;;;;;;;;;18.20;47.20;;;;;;5037716;28;19925;-66
2021/04/26 01:00:33;;;;;;;;;;;18.20;47.20;;;;;;5043331;28;19921;-67
2021/04/26 01:02:59;;;;;;;;;;;18.20;47.20;;;;;;5039875;28;19932;-69
2021/04/26 01:05:25;;;;;;;;;;;18.20;47.30;;;;;;5041041;28;20346;-68
2021/04/26 01:07:51;;;;;;;;;;;18.20;47.20;;;;;;5030460;28;19925;-68
2021/04/26 01:10:17;;;;;;;;;;;18.20;47.20;;;;;;5037786;28;19920;-67
2021/04/26 01:12:58;;;;;;;;;;;18.20;47.20;;;;;;5041226;28;19982;-68
2021/04/26 01:15:25;;;;;;;;;;;18.20;47.10;;;;;;5044352;28;20306;-68
2021/04/26 01:17:52;;;;;;;;;;;18.20;47.10;;;;;;5027852;28;20236;-67
2021/04/26 01:20:37;;;;;;;;;;;18.20;47.10;;;;;;5030600;28;19952;-66
2021/04/26 01:23:21;;;;;;;;;;;18.20;47.10;;;;;;5037825;28;21473;-69
2021/04/26 01:25:46;;;;;;;;;;;18.20;47.00;;;;;;5044534;28;20011;-68
2021/04/26 01:28:30;;;;;;;;;;;18.20;47.00;;;;;;5036369;28;19917;-68
2021/04/26 01:31:12;;;;;;;;;;;18.20;47.00;;;;;;5044675;28;19921;-68
2021/04/26 01:33:42;;;;;;;;;;;18.10;47.00;;;;;;5027769;28;19921;-67
2021/04/26 01:36:08;;;;;;;;;;;18.20;47.00;;;;;;5028731;28;20729;-68
2021/04/26 01:38:43;;;;;;;;;;;18.10;46.90;;;;;;5026465;28;20008;-68
2021/04/26 01:41:08;;;;;;;;;;;18.10;46.90;;;;;;5035882;28;19917;-69
2021/04/26 01:43:34;;;;;;;;;;;18.10;46.90;;;;;;5030566;28;19917;-67
2021/04/26 01:46:00;;;;;;;;;;;18.10;46.90;;;;;;5042865;28;20298;-68
2021/04/26 01:48:26;;;;;;;;;;;18.10;46.90;;;;;;5041621;28;19952;-67
2021/04/26 01:50:52;;;;;;;;;;;18.10;46.90;;;;;;5041521;28;19974;-68
2021/04/26 01:53:17;;;;;;;;;;;18.10;46.90;;;;;;5027771;28;20355;-68
2021/04/26 01:55:43;;;;;;;;;;;18.10;46.80;;;;;;5023899;28;19918;-68
2021/04/26 01:58:08;;;;;;;;;;;18.10;46.80;;;;;;5026956;28;19924;-68
2021/04/26 02:00:34;;;;;;;;;;;18.10;46.80;;;;;;5034181;28;19925;-68
2021/04/26 02:02:59;;;;;;;;;;;18.10;46.80;;;;;;5024228;28;20541;-68
2021/04/26 02:05:25;;;;;;;;;;;18.10;46.80;;;;;;5030596;28;19924;-68
2021/04/26 02:07:51;;;;;;;;;;;18.10;46.80;;;;;;5027931;28;20004;-68
2021/04/26 02:10:16;;;;;;;;;;;18.00;46.80;;;;;;5027088;28;19921;-65
2021/04/26 02:12:42;;;;;;;;;;;18.00;46.80;;;;;;5024527;28;20019;-68
2021/04/26 02:15:08;;;;;;;;;;;18.10;46.90;;;;;;5025518;28;20014;-68
2021/04/26 02:17:34;;;;;;;;;;;18.00;46.80;;;;;;5006933;28;19917;-67
2021/04/26 02:19:59;;;;;;;;;;;18.00;46.80;;;;;;5037712;28;19944;-68
2021/04/26 02:22:25;;;;;;;;;;;18.00;46.70;;;;;;5040440;28;19916;-67
2021/04/26 02:24:50;;;;;;;;;;;18.00;46.80;;;;;;5026447;28;20683;-68
2021/04/26 02:27:16;;;;;;;;;;;18.00;46.70;;;;;;5035715;28;20016;-68
2021/04/26 02:29:41;;;;;;;;;;;18.00;46.80;;;;;;5032365;28;19921;-68
2021/04/26 02:32:07;;;;;;;;;;;18.00;46.70;;;;;;5040995;28;20341;-68
2021/04/26 02:34:34;;;;;;;;;;;18.00;46.60;;;;;;5030080;28;19929;-69
2021/04/26 02:37:04;;;;;;;;;;;18.00;46.70;;;;;;5036971;28;20430;-68
2021/04/26 02:39:30;;;;;;;;;;;18.00;46.60;;;;;;5026350;28;20493;-68
2021/04/26 02:41:55;;;;;;;;;;;18.00;46.60;;;;;;5025356;28;19925;-67
2021/04/26 02:44:25;;;;;;;;;;;18.00;46.60;;;;;;5033222;28;19923;-67
2021/04/26 02:46:50;;;;;;;;;;;18.00;46.60;;;;;;5024428;28;19929;-68
2021/04/26 02:49:16;;;;;;;;;;;17.90;46.60;;;;;;5025816;28;20460;-67
2021/04/26 02:51:41;;;;;;;;;;;18.00;46.60;;;;;;5035315;28;19917;-67
2021/04/26 02:54:07;;;;;;;;;;;17.90;46.60;;;;;;5029783;28;19929;-67
2021/04/26 02:56:36;;;;;;;;;;;17.90;46.60;;;;;;5033742;28;20150;-68
2021/04/26 02:59:02;;;;;;;;;;;17.90;46.50;;;;;;5038263;28;19971;-67
2021/04/26 03:01:27;;;;;;;;;;;18.00;46.50;;;;;;5032171;28;19921;-68
2021/04/26 03:03:52;;;;;;;;;;;17.90;46.50;;;;;;5038208;28;19940;-68
2021/04/26 03:06:18;;;;;;;;;;;17.90;46.50;;;;;;5042650;28;19921;-67
2021/04/26 03:08:45;;;;;;;;;;;17.90;46.50;;;;;;5030239;28;19921;-66
2021/04/26 03:11:11;;;;;;;;;;;18.00;46.50;;;;;;5025229;28;19936;-66
2021/04/26 03:13:36;;;;;;;;;;;17.90;46.50;;;;;;5022143;28;20313;-68
2021/04/26 03:16:02;;;;;;;;;;;17.90;46.50;;;;;;5031587;28;19917;-67
2021/04/26 03:18:27;;;;;;;;;;;17.90;46.50;;;;;;5025729;28;19921;-67
2021/04/26 03:20:53;;;;;;;;;;;17.90;46.50;;;;;;5034450;28;19917;-68
2021/04/26 03:23:22;;;;;;;;;;;17.90;46.40;;;;;;5022842;28;19917;-68
2021/04/26 03:25:48;;;;;;;;;;;17.90;46.40;;;;;;5042712;28;19975;-68
2021/04/26 03:28:13;;;;;;;;;;;17.90;46.40;;;;;;5038376;28;19917;-67
2021/04/26 03:30:39;;;;;;;;;;;17.90;46.40;;;;;;5040174;28;19963;-68
2021/04/26 03:33:04;;;;;;;;;;;17.90;46.40;;;;;;5024490;28;20378;-67
2021/04/26 03:35:30;;;;;;;;;;;17.90;46.40;;;;;;5031534;28;19917;-68
2021/04/26 03:37:55;;;;;;;;;;;17.90;46.40;;;;;;5023437;28;20434;-67
2021/04/26 03:40:21;;;;;;;;;;;17.90;46.40;;;;;;5038975;28;19916;-68
2021/04/26 03:42:47;;;;;;;;;;;17.80;46.30;;;;;;5038743;28;19924;-68
2021/04/26 03:45:15;;;;;;;;;;;17.90;46.40;;;;;;5035074;28;19921;-68
2021/04/26 03:47:41;;;;;;;;;;;17.80;46.30;;;;;;5039005;28;19925;-67
2021/04/26 03:50:07;;;;;;;;;;;17.80;46.30;;;;;;5038174;28;19931;-68
2021/04/26 03:52:32;;;;;;;;;;;17.80;46.30;;;;;;5032769;28;19928;-68
2021/04/26 03:54:58;;;;;;;;;;;17.80;46.30;;;;;;5041768;28;20280;-68
2021/04/26 03:57:23;;;;;;;;;;;17.80;46.40;;;;;;5045468;28;19925;-69
2021/04/26 03:59:48;;;;;;;;;;;17.80;46.40;;;;;;5042065;28;19936;-68
2021/04/26 04:02:14;;;;;;;;;;;17.80;46.40;;;;;;5036358;28;20055;-68
2021/04/26 04:04:40;;;;;;;;;;;17.80;46.40;;;;;;5036329;28;20468;-68
2021/04/26 04:07:06;;;;;;;;;;;17.80;46.40;;;;;;5037986;28;20475;-68
2021/04/26 04:09:31;;;;;;;;;;;17.80;46.40;;;;;;5034671;28;19935;-68
2021/04/26 04:11:56;;;;;;;;;;;17.80;46.50;;;;;;5037187;28;19979;-67
2021/04/26 04:14:22;;;;;;;;;;;17.70;46.50;;;;;;5039462;28;19932;-67
2021/04/26 04:16:47;;;;;;;;;;;17.70;46.50;;;;;;5042311;28;20404;-68
2021/04/26 04:19:13;;;;;;;;;;;17.80;46.50;;;;;;5039617;28;19921;-67
2021/04/26 04:21:38;;;;;;;;;;;17.80;46.60;;;;;;5029561;28;19917;-67
2021/04/26 04:24:04;;;;;;;;;;;17.80;46.60;;;;;;5038236;28;19929;-66
2021/04/26 04:26:29;;;;;;;;;;;17.80;46.60;;;;;;5036757;28;19939;-68
2021/04/26 04:28:55;;;;;;;;;;;17.80;46.60;;;;;;5031614;28;19925;-67
2021/04/26 04:31:20;;;;;;;;;;;17.80;46.60;;;;;;5038296;28;19924;-65
2021/04/26 04:33:46;;;;;;;;;;;17.80;46.90;;;;;;5041070;28;20467;-66
2021/04/26 04:36:11;;;;;;;;;;;17.80;47.10;;;;;;5028781;28;19966;-64
2021/04/26 04:38:37;;;;;;;;;;;17.80;47.50;;;;;;5046108;28;19939;-69
2021/04/26 04:41:02;;;;;;;;;;;17.90;47.30;;;;;;5031331;28;19917;-68
2021/04/26 04:43:28;;;;;;;;;;;17.90;47.10;;;;;;5039577;28;19917;-68
2021/04/26 04:45:53;;;;;;;;;;;18.00;47.10;;;;;;5033147;28;19921;-67
2021/04/26 04:48:19;;;;;;;;;;;17.90;47.00;;;;;;5029586;28;19924;-66
2021/04/26 04:50:44;;;;;;;;;;;17.90;46.90;;;;;;5038736;28;20994;-66
2021/04/26 04:53:10;;;;;;;;;;;17.90;46.90;;;;;;5041641;28;19921;-67
2021/04/26 04:55:35;;;;;;;;;;;17.90;46.90;;;;;;5040131;28;19946;-67
2021/04/26 04:58:00;;;;;;;;;;;18.00;46.90;;;;;;5040712;28;19928;-66
2021/04/26 05:00:26;;;;;;;;;;;18.00;46.90;;;;;;5031853;28;20035;-66
2021/04/26 05:02:51;;;;;;;;;;;18.00;46.80;;;;;;5040650;28;20015;-67
2021/04/26 05:05:17;;;;;;;;;;;17.90;46.70;;;;;;5032433;28;20000;-66
2021/04/26 05:07:42;;;;;;;;;;;17.90;46.80;;;;;;5036353;28;19917;-67
2021/04/26 05:10:08;;;;;;;;;;;17.90;46.80;;;;;;5040221;28;19963;-67
2021/04/26 05:12:34;;;;;;;;;;;17.90;46.70;;;;;;5034636;28;19925;-67
2021/04/26 05:14:59;;;;;;;;;;;17.90;46.70;;;;;;5041052;28;19921;-67
2021/04/26 05:17:28;;;;;;;;;;;17.90;46.70;;;;;;5039173;28;19971;-65
2021/04/26 05:19:53;;;;;;;;;;;18.00;46.60;;;;;;5042122;28;19916;-67
2021/04/26 05:22:19;;;;;;;;;;;17.90;46.60;;;;;;5026522;28;19923;-64
2021/04/26 05:24:44;;;;;;;;;;;17.90;46.60;;;;;;5027622;28;19943;-65
2021/04/26 05:27:09;;;;;;;;;;;17.90;46.60;;;;;;5030886;28;19920;-66
2021/04/26 05:29:35;;;;;;;;;;;18.00;46.60;;;;;;5031023;28;20391;-68
2021/04/26 05:32:00;;;;;;;;;;;18.00;47.60;;;;;;5040180;28;19920;-67
2021/04/26 05:34:26;;;;;;;;;;;18.00;48.30;;;;;;5041177;28;20007;-66
2021/04/26 05:36:51;;;;;;;;;;;17.90;48.60;;;;;;5035406;28;20147;-65
2021/04/26 05:39:17;;;;;;;;;;;18.00;48.90;;;;;;5046183;28;19920;-64
2021/04/26 05:41:42;;;;;;;;;;;18.00;49.00;;;;;;5028928;28;19917;-64
2021/04/26 05:44:08;;;;;;;;;;;18.00;49.30;;;;;;5041697;28;20346;-65
2021/04/26 05:46:33;;;;;;;;;;;18.00;49.30;;;;;;5029182;28;19913;-65
2021/04/26 05:48:59;;;;;;;;;;;18.00;49.40;;;;;;5046237;28;19924;-64
2021/04/26 05:51:24;;;;;;;;;;;18.00;49.60;;;;;;5041404;28;19914;-65
2021/04/26 05:53:49;;;;;;;;;;;18.00;49.90;;;;;;5025407;28;19925;-67
2021/04/26 05:56:15;;;;;;;;;;;18.00;50.00;;;;;;5025576;28;19971;-67
2021/04/26 05:58:40;;;;;;;;;;;18.00;49.80;;;;;;5024609;28;19984;-66
2021/04/26 06:01:06;;;;;;;;;;;18.00;49.50;;;;;;5024963;28;19924;-67
2021/04/26 06:03:31;;;;;;;;;;;18.00;49.30;;;;;;5025733;28;20351;-66
2021/04/26 06:05:57;;;;;;;;;;;18.00;49.10;;;;;;5025387;28;19913;-66
2021/04/26 06:08:23;;;;;;;;;;;18.10;48.80;;;;;;5043433;28;19920;-65
2021/04/26 06:10:48;;;;;;;;;;;18.10;48.50;;;;;;5044705;28;19913;-65
2021/04/26 06:13:13;;;;;;;;;;;18.10;48.30;;;;;;5046051;28;19926;-64
2021/04/26 06:15:39;;;;;;;;;;;18.10;48.20;;;;;;5041548;28;19913;-64
2021/04/26 06:18:11;;;;;;;;;;;18.10;47.90;;;;;;5045882;28;19917;-66
2021/04/26 06:20:37;;;;;;;;;;;18.10;47.70;;;;;;5043328;28;19919;-65
2021/04/26 06:23:03;;;;;;;;;;;18.10;47.60;;;;;;5025595;28;19917;-66
2021/04/26 06:25:28;;;;;;;;;;;18.10;47.40;;;;;;5024964;28;19917;-68
2021/04/26 06:27:54;;;;;;;;;;;18.10;47.30;;;;;;5023614;28;19920;-67
2021/04/26 06:30:19;;;;;;;;;;;18.10;47.20;;;;;;5025878;28;19914;-62
2021/04/26 06:32:44;;;;;;;;;;;18.00;47.20;;;;;;5025842;28;20016;-67
2021/04/26 06:35:10;;;;;;;;;;;18.10;47.20;;;;;;5024532;28;19917;-67
2021/04/26 06:37:35;;;;;;;;;;;18.00;47.20;;;;;;5025264;28;20396;-66
2021/04/26 06:40:01;;;;;;;;;;;18.10;47.40;;;;;;5033302;28;19921;-66
2021/04/26 06:42:26;;;;;;;;;;;18.00;47.10;;;;;;5040858;28;19913;-66
2021/04/26 06:44:52;;;;;;;;;;;18.00;46.50;;;;;;5035482;28;19957;-67
2021/04/26 06:47:17;;;;;;;;;;;18.00;46.00;;;;;;5045327;28;20272;-66
2021/04/26 06:49:43;;;;;;;;;;;18.00;45.70;;;;;;5044250;28;19969;-66
2021/04/26 06:52:08;;;;;;;;;;;18.10;45.70;;;;;;5039593;28;19947;-66
2021/04/26 06:54:33;;;;;;;;;;;18.00;45.70;;;;;;5040264;28;20459;-67
2021/04/26 06:56:59;;;;;;;;;;;18.00;45.70;;;;;;5044282;28;19912;-67
2021/04/26 06:59:24;;;;;;;;;;;18.00;45.70;;;;;;5026212;28;19913;-66
2021/04/26 07:01:50;;;;;;;;;;;18.00;45.80;;;;;;5025667;28;19920;-68
2021/04/26 07:04:15;;;;;;;;;;;17.90;45.90;;;;;;5026385;28;20340;-67
2021/04/26 07:06:41;;;;;;;;;;;18.00;45.90;;;;;;5035565;28;20372;-67
2021/04/26 07:09:06;;;;;;;;;;;18.00;45.90;;;;;;5039251;28;19962;-68
2021/04/26 07:11:32;;;;;;;;;;;17.90;45.80;;;;;;5043477;28;19916;-68
2021/04/26 07:13:57;;;;;;;;;;;18.00;45.90;;;;;;5037149;28;20324;-67
2021/04/26 07:16:23;;;;;;;;;;;18.00;46.10;;;;;;5032324;28;20577;-67
2021/04/26 07:18:48;;;;;;;;;;;18.00;46.10;;;;;;5023987;28;19932;-67
2021/04/26 07:21:14;;;;;;;;;;;17.90;46.10;;;;;;5027406;28;19921;-67
2021/04/26 07:23:39;;;;;;;;;;;17.90;46.10;;;;;;5023196;28;19920;-68
2021/04/26 07:26:05;;;;;;;;;;;17.90;46.20;;;;;;5033884;28;19913;-67
2021/04/26 07:28:31;;;;;;;;;;;17.90;46.20;;;;;;5043701;28;19913;-67
2021/04/26 07:30:56;;;;;;;;;;;17.90;46.30;;;;;;5042935;28;20408;-67
2021/04/26 07:33:22;;;;;;;;;;;17.90;46.30;;;;;;5033326;28;19928;-67
2021/04/26 07:35:47;;;;;;;;;;;17.90;46.40;;;;;;5023421;28;19913;-66
2021/04/26 07:38:12;;;;;;;;;;;17.90;46.40;;;;;;5022541;28;20347;-67
2021/04/26 07:40:38;;;;;;;;;;;17.90;46.50;;;;;;5031947;28;19921;-66
2021/04/26 07:43:03;;;;;;;;;;;17.90;46.50;;;;;;5042918;28;19917;-66
2021/04/26 07:45:29;;;;;;;;;;;17.90;46.60;;;;;;5042761;28;20332;-66
2021/04/26 07:47:57;;;;;;;;;;;17.90;46.60;;;;;;5042395;28;19999;-66
2021/04/26 07:50:22;;;;;;;;;;;17.90;46.60;;;;;;5042559;28;19996;-66
2021/04/26 07:52:48;;;;;;;;;;;17.90;46.60;;;;;;5043476;28;19951;-67
2021/04/26 07:55:13;;;;;;;;;;;17.90;46.60;;;;;;5025103;28;19925;-66
2021/04/26 07:57:39;;;;;;;;;;;17.90;46.60;;;;;;5042766;28;19947;-66
2021/04/26 08:00:05;;;;;;;;;;;17.90;46.70;;;;;;5043171;28;19913;-67
2021/04/26 08:02:30;;;;;;;;;;;17.90;46.70;;;;;;5042476;28;19913;-67
2021/04/26 08:04:56;;;;;;;;;;;17.90;46.70;;;;;;5029722;28;19920;-66
2021/04/26 08:07:21;;;;;;;;;;;17.90;46.70;;;;;;5023318;28;20563;-66
2021/04/26 08:09:46;;;;;;;;;;;17.90;46.70;;;;;;5027961;28;19917;-66
2021/04/26 08:12:12;;;;;;;;;;;17.90;46.70;;;;;;5032555;28;19917;-67
2021/04/26 08:14:37;;;;;;;;;;;17.90;46.70;;;;;;5025423;28;20437;-67
2021/04/26 08:17:03;;;;;;;;;;;17.90;46.70;;;;;;5026351;28;19913;-67
2021/04/26 08:19:28;;;;;;;;;;;17.90;46.70;;;;;;5040386;28;19913;-67
2021/04/26 08:21:54;;;;;;;;;;;17.90;46.70;;;;;;5043480;28;19913;-65
2021/04/26 08:24:19;;;;;;;;;;;17.90;46.70;;;;;;5038825;28;20010;-66
2021/04/26 08:26:45;;;;;;;;;;;17.90;46.80;;;;;;5033316;28;20296;-66
2021/04/26 08:29:10;;;;;;;;;;;17.90;46.80;;;;;;5022588;28;19913;-66
2021/04/26 08:31:36;;;;;;;;;;;17.90;46.80;;;;;;5029404;28;19925;-66
2021/04/26 08:34:01;;;;;;;;;;;17.90;46.80;;;;;;5042897;28;20678;-66
2021/04/26 08:36:26;;;;;;;;;;;17.90;46.80;;;;;;5041733;28;20000;-68
2021/04/26 08:38:52;;;;;;;;;;;17.90;46.80;;;;;;5041756;28;19913;-68
2021/04/26 08:41:17;;;;;;;;;;;17.90;46.90;;;;;;5034558;28;20449;-67
2021/04/26 08:43:45;;;;;;;;;;;17.90;46.80;;;;;;5033410;28;19913;-66
2021/04/26 08:46:11;;;;;;;;;;;17.90;46.80;;;;;;5041925;28;19986;-65
2021/04/26 08:48:36;;;;;;;;;;;17.90;46.90;;;;;;5025165;28;20323;-67
2021/04/26 08:51:02;;;;;;;;;;;17.90;46.80;;;;;;5024008;28;19921;-67
2021/04/26 08:53:27;;;;;;;;;;;17.90;46.80;;;;;;5042288;28;20473;-67
2021/04/26 08:55:53;;;;;;;;;;;17.90;46.80;;;;;;5026719;28;19939;-67
2021/04/26 08:58:19;;;;;;;;;;;17.90;46.80;;;;;;5033551;28;19952;-67
2021/04/26 09:00:44;;;;;;;;;;;17.90;46.80;;;;;;5025844;28;19913;-65
2021/04/26 09:03:10;;;;;;;;;;;17.90;46.80;;;;;;5026649;28;19928;-67
2021/04/26 09:05:36;;;;;;;;;;;17.90;46.90;;;;;;5026482;28;20020;-64
2021/04/26 09:08:06;;;;;;;;;;;17.90;46.80;;;;;;5046065;28;19917;-67
2021/04/26 09:10:41;;;;;;;;;;;17.90;46.80;;;;;;5045606;28;20485;-67
2021/04/26 09:13:27;;;;;;;;;;;17.90;46.90;;;;;;5045646;28;19916;-67
2021/04/26 09:16:06;;;;;;;;;;;17.90;46.90;;;;;;5044825;28;19955;-67
2021/04/26 09:18:47;;;;;;;;;;;17.90;46.90;;;;;;5045771;28;19917;-67
2021/04/26 09:21:16;;;;;;;;;;;17.90;46.90;;;;;;5045810;28;19913;-67
2021/04/26 09:23:42;;;;;;;;;;;17.90;46.90;;;;;;5041347;28;19913;-67
2021/04/26 09:26:26;;;;;;;;;;;17.90;46.90;;;;;;5038958;28;19924;-67
2021/04/26 09:29:10;;;;;;;;;;;17.90;47.00;;;;;;5043446;28;19948;-67
2021/04/26 09:31:36;;;;;;;;;;;17.90;46.90;;;;;;5034492;28;19959;-67
2021/04/26 09:34:01;;;;;;;;;;;17.90;46.90;;;;;;5041593;28;19925;-67
2021/04/26 09:36:31;;;;;;;;;;;17.90;47.00;;;;;;5027279;28;19917;-68
2021/04/26 09:38:59;;;;;;;;;;;17.90;47.00;;;;;;5045922;28;19963;-67
2021/04/26 09:41:25;;;;;;;;;;;17.90;46.90;;;;;;5045801;28;20058;-66
2021/04/26 09:43:59;;;;;;;;;;;17.90;47.00;;;;;;5035441;28;19924;-67
2021/04/26 09:46:37;;;;;;;;;;;17.90;47.00;;;;;;5025436;28;19913;-66
2021/04/26 09:49:15;;;;;;;;;;;17.90;47.00;;;;;;5025041;28;19917;-67
2021/04/26 09:51:40;;;;;;;;;;;17.90;47.00;;;;;;5025071;28;19922;-67
2021/04/26 09:54:06;;;;;;;;;;;17.90;47.00;;;;;;5034212;28;19921;-68
2021/04/26 09:56:38;;;;;;;;;;;17.90;47.00;;;;;;5025283;28;19978;-68
2021/04/26 09:59:03;;;;;;;;;;;17.90;47.00;;;;;;5025187;28;19948;-67
2021/04/26 10:01:29;;;;;;;;;;;17.90;47.10;;;;;;5024584;28;19921;-67
2021/04/26 10:03:55;;;;;;;;;;;17.90;47.00;;;;;;5026726;28;19917;-67
2021/04/26 10:06:20;;;;;;;;;;;17.90;47.00;;;;;;5026084;28;19917;-67
2021/04/26 10:08:46;;;;;;;;;;;17.90;46.90;;;;;;5027295;28;19932;-67
2021/04/26 10:11:12;;;;;;;;;;;17.90;46.90;;;;;;5026473;28;19914;-67
2021/04/26 10:13:37;;;;;;;;;;;17.90;46.90;;;;;;5026148;28;19944;-67
2021/04/26 10:16:03;;;;;;;;;;;17.90;46.90;;;;;;5043486;28;19985;-67
2021/04/26 10:18:33;;;;;;;;;;;17.90;46.90;;;;;;5030812;28;19913;-67
2021/04/26 10:20:59;;;;;;;;;;;17.90;47.00;;;;;;5038348;28;19917;-68
2021/04/26 10:23:38;;;;;;;;;;;17.90;47.00;;;;;;5033222;28;19920;-66
2021/04/26 10:26:03;;;;;;;;;;;17.90;47.00;;;;;;5025408;28;19920;-67
2021/04/26 10:28:29;;;;;;;;;;;17.90;47.00;;;;;;5025642;28;19999;-67
2021/04/26 10:30:58;;;;;;;;;;;17.90;47.00;;;;;;5038019;28;19971;-67
2021/04/26 10:33:24;;;;;;;;;;;17.90;47.00;;;;;;5036634;28;19955;-67
2021/04/26 10:35:52;;;;;;;;;;;17.90;47.00;;;;;;5031285;28;19916;-68
2021/04/26 10:38:33;;;;;;;;;;;17.90;47.00;;;;;;5032071;28;19999;-68
2021/04/26 10:40:59;;;;;;;;;;;17.90;47.00;;;;;;5044481;28;20387;-67
2021/04/26 10:43:27;;;;;;;;;;;17.90;47.10;;;;;;5025483;28;19919;-67
2021/04/26 10:46:12;;;;;;;;;;;17.90;47.10;;;;;;5031214;28;20067;-65
2021/04/26 10:48:37;;;;;;;;;;;17.90;47.10;;;;;;5036517;28;19912;-67
2021/04/26 10:51:02;;;;;;;;;;;17.90;47.10;;;;;;5043007;28;19913;-67
2021/04/26 10:53:43;;;;;;;;;;;17.90;47.10;;;;;;5025789;28;19924;-67
2021/04/26 10:56:09;;;;;;;;;;;17.90;47.10;;;;;;5034254;28;21709;-67
2021/04/26 10:58:39;;;;;;;;;;;17.90;47.10;;;;;;5029133;28;19920;-67
2021/04/26 11:01:05;;;;;;;;;;;17.90;47.10;;;;;;5039527;28;19991;-66
2021/04/26 11:03:31;;;;;;;;;;;17.90;47.10;;;;;;5043951;28;19991;-67
2021/04/26 11:05:59;;;;;;;;;;;17.90;47.10;;;;;;5024768;28;19983;-67
2021/04/26 11:08:29;;;;;;;;;;;17.90;47.10;;;;;;5031309;28;19924;-67
2021/04/26 11:13:34;;;;;;;;;;;17.90;47.10;;;;;;5027289;28;19931;-66
2021/04/26 11:16:07;;;;;;;;;;;17.90;47.10;;;;;;5035503;28;19912;-66
2021/04/26 11:18:32;;;;;;;;;;;17.90;47.10;;;;;;5030825;28;19993;-66
2021/04/26 11:20:58;;;;;;;;;;;17.90;47.10;;;;;;5043742;28;20019;-67
2021/04/26 11:23:39;;;;;;;;;;;17.90;47.10;;;;;;5043873;28;20568;-67
2021/04/26 11:26:10;;;;;;;;;;;17.90;47.10;;;;;;5023160;28;20438;-67
2021/04/26 11:28:55;;;;;;;;;;;17.90;47.10;;;;;;5023892;28;19913;-67
2021/04/26 11:31:21;;;;;;;;;;;17.90;47.20;;;;;;5023230;28;19952;-67
2021/04/26 11:33:52;;;;;;;;;;;17.90;47.20;;;;;;5022528;28;19921;-67
2021/04/26 11:36:18;;;;;;;;;;;17.80;47.50;;;;;;5031736;28;20004;-67
2021/04/26 11:38:44;;;;;;;;;;;17.80;47.60;;;;;;5034304;28;20563;-66
2021/04/26 11:41:09;;;;;;;;;;;17.80;47.50;;;;;;5042746;28;19913;-65
2021/04/26 11:43:42;;;;;;;;;;;17.80;47.50;;;;;;5043600;28;19913;-67
2021/04/26 11:46:08;;;;;;;;;;;17.80;47.50;;;;;;5042967;28;19912;-67
2021/04/26 11:48:35;;;;;;;;;;;17.80;47.60;;;;;;5043954;28;19913;-67
2021/04/26 11:51:00;;;;;;;;;;;17.80;47.70;;;;;;5034929;28;20631;-67
2021/04/26 11:53:27;;;;;;;;;;;17.80;47.80;;;;;;5023379;28;19917;-67
2021/04/26 11:55:52;;;;;;;;;;;17.80;47.80;;;;;;5024711;28;20019;-67
2021/04/26 11:58:22;;;;;;;;;;;17.70;47.90;;;;;;5041634;28;20303;-67
2021/04/26 12:00:48;;;;;;;;;;;17.70;47.90;;;;;;5040353;28;20063;-67
2021/04/26 12:03:14;;;;;;;;;;;17.70;47.90;;;;;;5022968;28;20324;-66
2021/04/26 12:05:39;;;;;;;;;;;17.70;48.00;;;;;;5031557;28;19913;-67
2021/04/26 12:08:05;;;;;;;;;;;17.70;48.00;;;;;;5027746;28;19963;-66
2021/04/26 12:10:31;;;;;;;;;;;17.70;48.00;;;;;;5042898;28;19923;-67
2021/04/26 12:12:57;;;;;;;;;;;17.80;48.00;;;;;;5043034;28;20600;-66
2021/04/26 12:15:23;;;;;;;;;;;17.70;48.10;;;;;;5026484;28;19917;-68
2021/04/26 12:17:49;;;;;;;;;;;17.70;48.10;;;;;;5033967;28;19913;-68
2021/04/26 12:20:19;;;;;;;;;;;17.70;48.10;;;;;;5042612;28;19913;-67
2021/04/26 12:22:45;;;;;;;;;;;17.70;48.10;;;;;;5025165;28;19913;-67
2021/04/26 12:25:10;;;;;;;;;;;17.80;48.10;;;;;;5022232;28;20431;-67
2021/04/26 12:27:36;;;;;;;;;;;17.70;48.20;;;;;;5022831;28;19924;-68
2021/04/26 12:30:12;;;;;;;;;;;17.70;48.20;;;;;;5023885;28;20449;-67
2021/04/26 12:32:37;;;;;;;;;;;17.80;48.00;;;;;;5018862;28;20336;-67
2021/04/26 12:35:03;;;;;;;;;;;17.80;48.10;;;;;;5026624;28;19917;-66
2021/04/26 12:37:30;;;;;;;;;;;17.80;48.10;;;;;;5038493;28;19921;-67
2021/04/26 12:40:11;;;;;;;;;;;17.80;48.10;;;;;;5046049;28;19963;-67
2021/04/26 12:42:36;;;;;;;;;;;17.80;48.00;;;;;;5046087;28;19996;-66
2021/04/26 12:45:08;;;;;;;;;;;17.80;48.10;;;;;;5046967;28;20000;-66
2021/04/26 12:47:43;;;;;;;;;;;17.80;48.30;;;;;;5042484;28;20384;-67
2021/04/26 12:50:15;;;;;;;;;;;17.80;48.20;;;;;;5025093;28;20388;-67
2021/04/26 12:52:40;;;;;;;;;;;17.70;48.30;;;;;;5041254;28;20377;-67
2021/04/26 12:55:07;;;;;;;;;;;17.80;48.30;;;;;;5045612;28;20009;-67
2021/04/26 12:57:33;;;;;;;;;;;17.70;48.30;;;;;;5046821;28;19913;-67
2021/04/26 12:59:58;;;;;;;;;;;17.70;48.30;;;;;;5035924;28;19936;-67
2021/04/26 13:02:24;;;;;;;;;;;17.70;48.30;;;;;;5038574;28;20364;-66
2021/04/26 13:04:50;;;;;;;;;;;17.70;48.40;;;;;;5032452;28;19918;-66
2021/04/26 13:07:16;;;;;;;;;;;17.70;48.50;;;;;;5045400;28;19924;-67
2021/04/26 13:09:41;;;;;;;;;;;17.70;48.60;;;;;;5046057;28;20582;-67
2021/04/26 13:12:07;;;;;;;;;;;17.70;48.60;;;;;;5045408;28;19913;-66
2021/04/26 13:14:34;;;;;;;;;;;17.70;48.60;;;;;;5043677;28;20096;-67
2021/04/26 13:17:17;;;;;;;;;;;17.70;48.60;;;;;;5025650;28;19920;-67
2021/04/26 13:19:43;;;;;;;;;;;17.70;48.60;;;;;;5027429;28;19924;-66
2021/04/26 13:22:27;;;;;;;;;;;17.70;48.70;;;;;;5045154;28;19916;-67
2021/04/26 13:24:55;;;;;;;;;;;17.70;48.70;;;;;;5045381;28;19916;-66
2021/04/26 13:27:21;;;;;;;;;;;17.70;48.70;;;;;;5026108;28;20008;-67
2021/04/26 13:29:46;;;;;;;;;;;17.70;48.70;;;;;;5033523;28;19916;-67
2021/04/26 13:32:12;;;;;;;;;;;17.70;48.70;;;;;;5042117;28;19925;-67
2021/04/26 13:34:38;;;;;;;;;;;17.70;48.80;;;;;;5044279;28;20391;-67
2021/04/26 13:37:03;;;;;;;;;;;17.70;48.80;;;;;;5034211;28;19983;-67
2021/04/26 13:39:29;;;;;;;;;;;17.70;48.80;;;;;;5035752;28;19992;-65
2021/04/26 13:41:54;;;;;;;;;;;17.70;48.80;;;;;;5044914;28;20455;-66
2021/04/26 13:44:19;;;;;;;;;;;17.70;48.80;;;;;;5031599;28;19920;-67
2021/04/26 13:46:45;;;;;;;;;;;17.70;48.80;;;;;;5040640;28;20003;-66
2021/04/26 13:49:11;;;;;;;;;;;17.70;48.90;;;;;;5045047;28;19925;-66
2021/04/26 13:51:36;;;;;;;;;;;17.70;48.90;;;;;;5030888;28;19913;-66
2021/04/26 13:54:02;;;;;;;;;;;17.70;48.80;;;;;;5025750;28;19923;-67
2021/04/26 13:56:27;;;;;;;;;;;17.70;48.70;;;;;;5026398;28;19916;-67
2021/04/26 13:58:53;;;;;;;;;;;17.70;48.80;;;;;;5028718;28;19967;-67
2021/04/26 14:01:18;;;;;;;;;;;17.70;48.80;;;;;;5024542;28;19913;-66
2021/04/26 14:03:45;;;;;;;;;;;17.70;48.70;;;;;;5024858;28;19996;-67
2021/04/26 14:06:10;;;;;;;;;;;17.70;48.80;;;;;;5026544;28;20372;-67
2021/04/26 14:08:36;;;;;;;;;;;17.70;48.80;;;;;;5044969;28;19913;-66
2021/04/26 14:11:01;;;;;;;;;;;17.70;48.80;;;;;;5045218;28;19913;-67
2021/04/26 14:13:27;;;;;;;;;;;17.70;48.70;;;;;;5044411;28;19917;-67
2021/04/26 14:15:52;;;;;;;;;;;17.70;48.70;;;;;;5044460;28;19928;-67
2021/04/26 14:18:18;;;;;;;;;;;17.70;48.80;;;;;;5033753;28;20287;-67